Latest Weather Observations for Kadina

IDS60801

Issued at 6:31 pm CST Monday 25 May 2015 (issued every 30 minutes, with the page automatically refreshed every 10 minutes)

About weather observations | Map of weather stations | Latest weather observations for SA | Other Formats
Station Details ID: 022050 Name: KADINA AWS Lat: -33.97 Lon: 137.66 Height: 41.14 m
Data from the previous 72 hours. | See also: Recent months at Kadina
Date/Time
CST
Temp
°C
App
Temp
°C
Dew
Point
Rel
Hum
%
Delta-T
°C
Wind Press
QNH
hPa
Press
MSL
hPa
Rain
since 9 am
mm
Dir
 
Spd
km/h
Gust
km/h
Spd
kts
Gust
kts
25/06:30pm 12.4 10.8 8.1 75 2.1 S 6 7 3 4 1026.6 - 0.0
25/06:00pm 12.4 10.2 7.9 74 2.2 SW 9 11 5 6 1026.5 1026.3 0.0
25/05:30pm 14.5 12.5 8.5 67 3.0 NW 9 9 5 5 1026.2 - 0.0
25/05:00pm 15.5 13.2 7.5 59 4.0 WNW 9 11 5 6 1026.1 - 0.0
25/04:30pm 17.5 14.3 7.0 50 5.2 WNW 13 15 7 8 1025.8 - 0.0
25/04:00pm 18.8 15.7 7.3 47 5.8 NW 13 15 7 8 1025.7 - 0.0
25/03:30pm 19.1 15.8 6.6 44 6.3 NW 13 15 7 8 1025.4 - 0.0
25/03:00pm 19.1 16.6 6.6 44 6.2 NW 9 15 5 8 1025.2 1025.0 0.0
25/02:30pm 19.4 16.5 6.5 43 6.5 WNW 11 17 6 9 1025.4 - 0.0
25/02:00pm 19.1 16.2 6.6 44 6.3 NW 11 19 6 10 1025.6 - 0.0
25/01:30pm 18.6 15.1 7.1 47 5.8 N 15 19 8 10 1026.1 - 0.0
25/01:00pm 18.4 14.6 5.6 43 6.3 N 15 20 8 11 1026.4 - 0.0
25/12:30pm 18.8 15.1 6.3 44 6.2 NNW 15 19 8 10 1026.6 - 0.0
25/12:00pm 18.9 16.4 8.0 49 5.6 N 11 19 6 10 1026.7 1026.5 0.0
25/11:30am 18.0 14.7 6.5 47 5.7 N 13 19 7 10 1027.0 - 0.0
25/11:00am 17.8 13.9 7.2 50 5.3 N 17 20 9 11 1027.9 - 0.0
25/10:30am 17.2 13.9 8.1 55 4.6 N 15 20 8 11 1028.3 - 0.0
25/10:00am 16.4 13.6 8.4 59 4.1 N 13 19 7 10 1028.5 - 0.0
25/09:30am 15.2 12.9 9.1 67 3.1 NE 11 15 6 8 1028.7 - 0.0
25/09:00am 13.2 10.7 8.3 72 2.4 ENE 11 13 6 7 1028.5 1028.3 0.0
25/08:30am 11.7 9.2 8.0 78 1.8 NE 11 13 6 7 1028.6 - 0.0
25/08:00am 9.4 7.2 7.8 90 0.8 ENE 9 11 5 6 1028.8 - 0.0
25/07:30am 6.8 3.7 5.7 93 0.5 E 11 13 6 7 1028.5 - 0.0
25/07:00am 6.2 3.0 5.3 94 0.4 E 11 13 6 7 1028.2 - 0.0
25/06:30am 5.7 2.4 4.7 93 0.4 ENE 11 13 6 7 1028.0 - 0.0
25/06:00am 5.3 1.9 4.1 92 0.5 ENE 11 13 6 7 1027.9 1027.7 0.0
25/05:30am 6.8 3.7 5.4 91 0.6 E 11 13 6 7 1027.6 - 0.0
25/05:00am 6.8 3.3 5.3 90 0.7 E 13 13 7 7 1027.4 - 0.0
25/04:30am 7.5 4.1 5.8 89 0.8 E 13 13 7 7 1027.4 - 0.0
25/04:00am 8.7 5.5 6.8 88 0.9 E 13 15 7 8 1027.3 - 0.0
25/03:30am 9.7 7.5 7.8 88 0.9 ESE 9 11 5 6 1027.5 - 0.0
25/03:00am 10.1 7.6 8.0 87 1.0 E 11 13 6 7 1027.6 1027.4 0.0
25/02:30am 10.5 7.7 8.4 87 1.0 E 13 13 7 7 1027.7 - 0.0
25/02:00am 10.7 8.3 8.6 87 1.0 ESE 11 13 6 7 1027.9 - 0.0
25/01:30am 10.5 8.0 8.4 87 1.0 ESE 11 13 6 7 1027.8 - 0.0
25/01:00am 10.6 8.5 8.4 86 1.1 SE 9 11 5 6 1028.1 - 0.0
25/12:30am 10.8 8.4 8.6 86 1.1 ESE 11 13 6 7 1028.0 - 0.0
25/12:00am 10.8 8.4 8.6 86 1.1 E 11 13 6 7 1028.1 1027.9 0.0
 
Date/Time
CST
Temp
°C
App
Temp
°C
Dew
Point
Rel
Hum
%
Delta-T
°C
Wind Press
QNH
hPa
Press
MSL
hPa
Rain
since 9 am
mm
Dir
 
Spd
km/h
Gust
km/h
Spd
kts
Gust
kts
24/11:30pm 10.8 8.4 8.6 86 1.1 ESE 11 13 6 7 1028.3 - 0.0
24/11:00pm 10.7 8.6 8.3 85 1.2 ESE 9 11 5 6 1028.5 - 0.0
24/10:30pm 10.9 8.4 8.3 84 1.3 ESE 11 13 6 7 1028.2 - 0.0
24/10:00pm 10.8 8.6 8.0 83 1.4 ESE 9 11 5 6 1028.4 - 0.0
24/09:30pm 10.9 8.4 8.3 84 1.3 ESE 11 11 6 6 1028.3 - 0.0
24/09:00pm 10.8 8.6 8.0 83 1.4 ESE 9 11 5 6 1028.2 1028.0 0.0
24/08:30pm 10.9 9.1 7.8 81 1.5 E 7 9 4 5 1028.2 - 0.0
24/08:00pm 11.4 8.9 8.1 80 1.6 ESE 11 13 6 7 1027.9 - 0.0
24/07:30pm 11.4 8.8 7.7 78 1.8 E 11 13 6 7 1027.7 - 0.0
24/07:00pm 11.6 9.4 7.7 77 1.9 E 9 11 5 6 1027.9 - 0.0
24/06:30pm 12.1 9.4 7.4 73 2.3 ENE 11 11 6 6 1027.7 - 0.0
24/06:00pm 13.0 10.4 7.7 70 2.6 ESE 11 17 6 9 1027.7 1027.5 0.0
24/05:30pm 13.0 10.4 7.7 70 2.6 E 11 13 6 7 1027.2 - 0.0
24/05:00pm 14.0 11.3 7.3 64 3.3 N 11 11 6 6 1027.8 - 0.0
24/04:30pm 15.1 13.2 6.7 57 4.1 N 6 9 3 5 1027.5 - 0.0
24/04:00pm 15.8 12.9 6.5 54 4.5 N 11 13 6 7 1027.8 - 0.0
24/03:30pm 16.1 13.3 6.8 54 4.6 N 11 15 6 8 1027.7 - 0.0
24/03:00pm 15.8 13.4 6.8 55 4.4 N 9 11 5 6 1027.5 1027.3 0.0
24/02:30pm 16.2 12.9 6.6 53 4.7 N 13 15 7 8 1027.4 - 0.0
24/02:00pm 16.3 13.0 6.4 52 4.8 N 13 17 7 9 1027.4 - 0.0
24/01:30pm 16.0 12.5 7.2 56 4.4 N 15 19 8 10 1027.5 - 0.0
24/01:00pm 16.2 12.4 7.7 57 4.3 N 17 20 9 11 1027.8 - 0.0
24/12:30pm 15.7 12.4 8.0 60 3.9 N 15 19 8 10 1028.1 - 0.0
24/12:00pm 15.3 11.9 7.8 61 3.7 N 15 20 8 11 1028.5 1028.3 0.0
24/11:30am 14.8 11.6 8.3 65 3.3 N 15 19 8 10 1028.7 - 0.0
24/11:00am 14.5 11.0 8.7 68 2.9 NNE 17 20 9 11 1028.8 - 0.0
24/10:30am 13.3 10.2 9.0 75 2.2 NE 15 20 8 11 1028.9 - 0.0
24/10:00am 12.3 9.5 8.6 78 1.8 NE 13 17 7 9 1028.9 - 0.0
24/09:30am 11.4 8.5 8.3 81 1.5 NE 13 17 7 9 1028.9 - 0.0
24/09:00am 10.4 7.5 8.0 85 1.2 ENE 13 15 7 8 1028.6 1028.4 0.0
24/08:30am 9.5 6.9 7.6 88 0.9 ENE 11 15 6 8 1028.7 - 0.0
24/08:00am 8.7 5.6 7.3 91 0.7 ENE 13 15 7 8 1028.4 - 0.0
24/07:30am 7.4 4.1 6.5 94 0.4 ENE 13 15 7 8 1028.1 - 0.0
24/07:00am 6.8 3.4 5.7 93 0.5 ENE 13 15 7 8 1027.9 - 0.0
24/06:30am 6.2 3.0 5.0 92 0.5 E 11 13 6 7 1027.7 - 0.0
24/06:00am 7.3 4.3 5.9 91 0.6 ENE 11 13 6 7 1027.6 1027.4 0.0
24/05:30am 8.0 4.3 6.5 90 0.7 ENE 15 15 8 8 1027.5 - 0.0
24/05:00am 7.7 4.0 6.3 91 0.6 ENE 15 17 8 9 1027.3 - 0.0
24/04:30am 8.0 4.4 6.6 91 0.6 NE 15 17 8 9 1027.3 - 0.0
24/04:00am 7.6 4.0 6.7 94 0.4 NE 15 17 8 9 1027.0 - 0.0
24/03:30am 6.5 2.6 5.5 93 0.4 ENE 15 17 8 9 1027.0 - 0.0
24/03:00am 7.2 3.9 6.3 94 0.4 ENE 13 15 7 8 1027.4 1027.2 0.0
24/02:30am 6.0 2.5 5.3 95 0.3 ENE 13 15 7 8 1027.5 - 0.0
24/02:00am 5.5 1.5 4.8 95 0.3 E 15 15 8 8 1027.4 - 0.0
24/01:30am 4.9 1.5 4.2 95 0.3 E 11 13 6 7 1027.4 - 0.0
24/01:00am 5.5 1.9 4.8 95 0.3 E 13 13 7 7 1027.5 - 0.0
24/12:30am 5.2 1.9 4.5 95 0.3 E 11 13 6 7 1027.8 - 0.0
24/12:00am 5.5 2.2 4.6 94 0.4 E 11 11 6 6 1027.8 1027.6 0.0
 
Date/Time
CST
Temp
°C
App
Temp
°C
Dew
Point
Rel
Hum
%
Delta-T
°C
Wind Press
QNH
hPa
Press
MSL
hPa
Rain
since 9 am
mm
Dir
 
Spd
km/h
Gust
km/h
Spd
kts
Gust
kts
23/11:30pm 6.4 2.6 5.7 95 0.3 ENE 15 17 8 9 1027.9 - 0.0
23/11:00pm 6.1 2.5 5.1 93 0.4 E 13 13 7 7 1028.0 - 0.0
23/10:30pm 6.7 3.3 5.8 94 0.4 E 13 13 7 7 1028.2 - 0.0
23/10:00pm 7.5 4.2 6.4 93 0.5 ESE 13 15 7 8 1028.3 - 0.0
23/09:30pm 7.4 4.4 6.2 92 0.5 ESE 11 13 6 7 1028.5 - 0.0
23/09:00pm 7.4 4.4 5.9 90 0.7 ESE 11 13 6 7 1028.7 1028.5 0.0
23/08:30pm 8.0 5.0 6.1 88 0.9 ESE 11 13 6 7 1028.8 - 0.0
23/08:00pm 9.3 6.6 7.3 87 0.9 SE 11 11 6 6 1028.7 - 0.0
23/07:30pm 9.9 7.2 7.2 83 1.3 SE 11 11 6 6 1028.3 - 0.0
23/07:00pm 10.5 7.4 7.2 80 1.6 ESE 13 17 7 9 1028.0 - 0.0
23/06:30pm 10.0 7.5 6.5 79 1.6 ENE 9 9 5 5 1027.8 - 0.0
23/06:00pm 11.5 9.5 6.4 71 2.4 NE 6 6 3 3 1028.0 1027.8 0.0
23/05:30pm 13.7 11.7 7.2 65 3.2 NNW 7 7 4 4 1028.1 - 0.0
23/05:00pm 14.5 11.4 7.3 62 3.5 N 13 15 7 8 1028.3 - 0.0
23/04:30pm 16.1 12.6 7.1 55 4.5 N 15 20 8 11 1028.4 - 0.0
23/04:00pm 16.9 13.9 7.5 54 4.7 N 13 17 7 9 1028.5 - 0.0
23/03:30pm 16.9 13.4 7.3 53 4.8 N 15 20 8 11 1028.4 - 0.0
23/03:00pm 17.3 14.3 7.6 53 4.9 N 13 20 7 11 1028.4 1028.2 0.0
23/02:30pm 17.0 13.5 7.1 52 4.9 N 15 24 8 13 1028.5 - 0.0
23/02:00pm 17.3 13.5 7.6 53 4.9 NNW 17 22 9 12 1028.8 - 0.0
23/01:30pm 17.0 13.7 7.9 55 4.6 N 15 22 8 12 1029.0 - 0.0
23/01:00pm 17.8 14.8 7.8 52 5.1 NNE 13 20 7 11 1029.3 - 0.0
23/12:30pm 17.0 14.2 8.4 57 4.4 NNE 13 20 7 11 1029.7 - 0.0
23/12:00pm 16.7 13.9 8.4 58 4.2 NNE 13 19 7 10 1030.2 1030.0 0.0
23/11:30am 16.2 13.5 8.9 62 3.8 NNE 13 19 7 10 1030.8 - 0.0
23/11:00am 14.9 11.7 8.6 66 3.2 NNE 15 20 8 11 1031.2 - 0.0
23/10:30am 13.7 10.5 8.3 70 2.7 NE 15 19 8 10 1031.5 - 0.0
23/10:00am 13.1 9.5 8.2 72 2.4 NE 17 20 9 11 1031.8 - 0.0
23/09:30am 11.6 8.7 8.1 79 1.7 E 13 17 7 9 1031.8 - 0.0
23/09:00am 9.2 6.2 7.8 91 0.7 E 13 15 7 8 1031.8 1031.6 0.0
23/08:30am 6.9 4.0 6.3 96 0.3 ESE 11 15 6 8 1031.6 - 0.0
23/08:00am 4.9 0.8 4.5 97 0.2 ESE 15 17 8 9 1031.3 - 0.0
23/07:30am 3.5 -0.5 2.9 96 0.2 ESE 13 15 7 8 1031.1 - 0.0
23/07:00am 3.2 -1.2 2.6 96 0.2 ESE 15 17 8 9 1031.0 - 0.0
23/06:30am 3.7 -0.6 3.1 96 0.2 ESE 15 17 8 9 1030.8 - 0.0
23/06:00am 4.3 0.5 3.9 97 0.2 SE 13 15 7 8 1030.8 1030.6 0.0
23/05:30am 3.0 -0.7 2.4 96 0.2 ESE 11 13 6 7 1030.7 - 0.0
23/05:00am 4.1 -0.2 3.5 96 0.2 ESE 15 17 8 9 1030.5 - 0.0
23/04:30am 3.5 -0.5 2.9 96 0.2 ESE 13 15 7 8 1030.4 - 0.0
23/04:00am 3.6 -0.7 3.0 96 0.2 ESE 15 15 8 8 1030.3 - 0.0
23/03:30am 3.9 -0.4 3.3 96 0.2 ESE 15 17 8 9 1030.5 - 0.0
23/03:00am 4.8 0.3 4.4 97 0.2 SE 17 19 9 10 1030.6 1030.4 0.0
23/02:30am 3.4 -0.6 2.8 96 0.2 SE 13 15 7 8 1031.0 - 0.0
23/02:00am 4.3 0.1 3.7 96 0.2 ESE 15 17 8 9 1031.2 - 0.0
23/01:30am 4.2 0.0 3.6 96 0.2 SE 15 17 8 9 1031.4 - 0.0
23/01:00am 4.3 0.8 3.7 96 0.2 ESE 11 13 6 7 1031.4 - 0.0
23/12:30am 3.9 0.0 3.3 96 0.2 ESE 13 13 7 7 1031.4 - 0.0
23/12:00am 4.5 0.7 3.9 96 0.2 SE 13 15 7 8 1031.5 1031.3 0.0
 
Date/Time
CST
Temp
°C
App
Temp
°C
Dew
Point
Rel
Hum
%
Delta-T
°C
Wind Press
QNH
hPa
Press
MSL
hPa
Rain
since 9 am
mm
Dir
 
Spd
km/h
Gust
km/h
Spd
kts
Gust
kts
22/11:30pm 5.0 1.3 4.4 96 0.3 ESE 13 15 7 8 1031.5 - 0.0
22/11:00pm 5.3 1.2 4.6 95 0.3 SE 15 15 8 8 1031.5 - 0.0
22/10:30pm 5.5 1.5 4.9 96 0.3 SE 15 17 8 9 1031.3 - 0.0
22/10:00pm 4.7 1.3 3.8 94 0.4 SE 11 13 6 7 1031.4 - 0.0
22/09:30pm 5.7 2.4 4.8 94 0.4 SE 11 13 6 7 1031.5 - 0.0
22/09:00pm 5.9 2.7 5.0 94 0.4 SE 11 17 6 9 1031.4 1031.2 0.0
22/08:30pm 6.6 4.3 5.7 94 0.4 ESE 7 9 4 5 1031.5 - 0.0
22/08:00pm 6.2 3.0 5.0 92 0.5 SE 11 13 6 7 1031.3 - 0.0
22/07:30pm 7.2 3.8 5.7 90 0.7 SE 13 13 7 7 1031.4 - 0.0
22/07:00pm 8.1 5.1 6.2 88 0.9 SSE 11 13 6 7 1031.4 - 0.0

Other Formats:

Comma delimited format used in spreadsheet applications
http://www.bom.gov.au/fwo/IDS60801/IDS60801.94685.axf

JavaScript Object Notation format (JSON) in row-major order
http://www.bom.gov.au/fwo/IDS60801/IDS60801.94685.json